sensor_id;sensor_type;location;lat;lon;timestamp;P1;durP1;ratioP1;P2;durP2;ratioP2
41434;SDS011;27177;22.262;114.192;2022-09-24T00:01:28;13.70;;;11.50;;
41434;SDS011;27177;22.262;114.192;2022-09-24T00:03:59;19.63;;;11.80;;
41434;SDS011;27177;22.262;114.192;2022-09-24T00:08:59;20.63;;;11.57;;
41434;SDS011;27177;22.262;114.192;2022-09-24T00:11:26;14.93;;;11.45;;
41434;SDS011;27177;22.262;114.192;2022-09-24T00:13:56;14.75;;;11.50;;
41434;SDS011;27177;22.262;114.192;2022-09-24T00:16:24;15.35;;;11.25;;
41434;SDS011;27177;22.262;114.192;2022-09-24T00:19:04;15.98;;;11.43;;
41434;SDS011;27177;22.262;114.192;2022-09-24T00:26:51;17.45;;;11.63;;
41434;SDS011;27177;22.262;114.192;2022-09-24T00:29:43;16.65;;;11.80;;
41434;SDS011;27177;22.262;114.192;2022-09-24T00:32:27;14.25;;;11.63;;
41434;SDS011;27177;22.262;114.192;2022-09-24T00:34:54;18.42;;;11.48;;
41434;SDS011;27177;22.262;114.192;2022-09-24T00:37:20;17.38;;;11.95;;
41434;SDS011;27177;22.262;114.192;2022-09-24T00:39:47;15.18;;;11.68;;
41434;SDS011;27177;22.262;114.192;2022-09-24T00:42:14;17.50;;;11.15;;
41434;SDS011;27177;22.262;114.192;2022-09-24T00:47:26;15.68;;;12.00;;
41434;SDS011;27177;22.262;114.192;2022-09-24T00:50:02;17.70;;;12.27;;
41434;SDS011;27177;22.262;114.192;2022-09-24T00:52:31;12.88;;;10.70;;
41434;SDS011;27177;22.262;114.192;2022-09-24T00:55:01;19.42;;;11.60;;
41434;SDS011;27177;22.262;114.192;2022-09-24T00:57:28;13.98;;;11.20;;
41434;SDS011;27177;22.262;114.192;2022-09-24T00:59:56;18.50;;;13.07;;
41434;SDS011;27177;22.262;114.192;2022-09-24T01:02:23;15.27;;;11.10;;
41434;SDS011;27177;22.262;114.192;2022-09-24T01:04:50;20.02;;;11.18;;
41434;SDS011;27177;22.262;114.192;2022-09-24T01:07:19;15.70;;;11.65;;
41434;SDS011;27177;22.262;114.192;2022-09-24T01:09:46;15.02;;;11.57;;
41434;SDS011;27177;22.262;114.192;2022-09-24T01:12:17;14.70;;;12.45;;
41434;SDS011;27177;22.262;114.192;2022-09-24T01:15:24;18.08;;;11.70;;
41434;SDS011;27177;22.262;114.192;2022-09-24T01:18:02;13.27;;;11.80;;
41434;SDS011;27177;22.262;114.192;2022-09-24T01:23:41;17.83;;;11.85;;
41434;SDS011;27177;22.262;114.192;2022-09-24T01:26:38;16.20;;;11.07;;
41434;SDS011;27177;22.262;114.192;2022-09-24T01:32:06;18.88;;;11.45;;
41434;SDS011;27177;22.262;114.192;2022-09-24T01:34:39;16.45;;;11.18;;
41434;SDS011;27177;22.262;114.192;2022-09-24T01:37:11;16.42;;;11.95;;
41434;SDS011;27177;22.262;114.192;2022-09-24T01:39:42;15.77;;;10.23;;
41434;SDS011;27177;22.262;114.192;2022-09-24T01:42:11;14.55;;;10.90;;
41434;SDS011;27177;22.262;114.192;2022-09-24T01:44:39;17.08;;;11.13;;
41434;SDS011;27177;22.262;114.192;2022-09-24T01:47:09;15.85;;;11.00;;
41434;SDS011;27177;22.262;114.192;2022-09-24T01:49:43;15.68;;;10.00;;
41434;SDS011;27177;22.262;114.192;2022-09-24T01:52:12;13.88;;;10.98;;
41434;SDS011;27177;22.262;114.192;2022-09-24T01:54:44;17.60;;;10.40;;
41434;SDS011;27177;22.262;114.192;2022-09-24T01:58:02;15.50;;;10.13;;
41434;SDS011;27177;22.262;114.192;2022-09-24T02:00:16;14.85;;;10.68;;
41434;SDS011;27177;22.262;114.192;2022-09-24T02:02:49;12.65;;;10.55;;
41434;SDS011;27177;22.262;114.192;2022-09-24T02:08:05;17.42;;;10.63;;
41434;SDS011;27177;22.262;114.192;2022-09-24T02:10:49;14.98;;;10.50;;
41434;SDS011;27177;22.262;114.192;2022-09-24T02:13:20;14.18;;;10.65;;
41434;SDS011;27177;22.262;114.192;2022-09-24T02:15:53;14.63;;;9.73;;
41434;SDS011;27177;22.262;114.192;2022-09-24T02:18:25;14.80;;;10.35;;
41434;SDS011;27177;22.262;114.192;2022-09-24T02:20:56;13.43;;;9.57;;
41434;SDS011;27177;22.262;114.192;2022-09-24T02:23:27;15.10;;;10.02;;
41434;SDS011;27177;22.262;114.192;2022-09-24T02:25:57;13.90;;;10.05;;
41434;SDS011;27177;22.262;114.192;2022-09-24T02:28:28;15.70;;;9.85;;
41434;SDS011;27177;22.262;114.192;2022-09-24T02:33:41;12.93;;;9.40;;
41434;SDS011;27177;22.262;114.192;2022-09-24T02:36:29;12.25;;;10.05;;
41434;SDS011;27177;22.262;114.192;2022-09-24T02:38:57;14.55;;;9.70;;
41434;SDS011;27177;22.262;114.192;2022-09-24T02:41:24;14.38;;;10.27;;
41434;SDS011;27177;22.262;114.192;2022-09-24T02:43:52;12.52;;;9.55;;
41434;SDS011;27177;22.262;114.192;2022-09-24T02:46:19;14.85;;;9.52;;
41434;SDS011;27177;22.262;114.192;2022-09-24T02:48:46;12.07;;;9.73;;
41434;SDS011;27177;22.262;114.192;2022-09-24T02:51:13;14.98;;;10.02;;
41434;SDS011;27177;22.262;114.192;2022-09-24T02:53:40;14.90;;;10.40;;
41434;SDS011;27177;22.262;114.192;2022-09-24T02:56:07;16.40;;;10.02;;
41434;SDS011;27177;22.262;114.192;2022-09-24T02:58:35;14.70;;;10.48;;
41434;SDS011;27177;22.262;114.192;2022-09-24T03:01:03;14.82;;;10.70;;
41434;SDS011;27177;22.262;114.192;2022-09-24T03:03:32;13.20;;;9.55;;
41434;SDS011;27177;22.262;114.192;2022-09-24T03:05:59;16.52;;;10.50;;
41434;SDS011;27177;22.262;114.192;2022-09-24T03:08:26;14.80;;;9.85;;
41434;SDS011;27177;22.262;114.192;2022-09-24T03:10:55;12.00;;;9.70;;
41434;SDS011;27177;22.262;114.192;2022-09-24T03:13:22;15.23;;;9.98;;
41434;SDS011;27177;22.262;114.192;2022-09-24T03:15:49;14.10;;;9.60;;
41434;SDS011;27177;22.262;114.192;2022-09-24T03:18:16;13.32;;;9.60;;
41434;SDS011;27177;22.262;114.192;2022-09-24T03:20:52;19.35;;;10.65;;
41434;SDS011;27177;22.262;114.192;2022-09-24T03:23:20;16.30;;;10.43;;
41434;SDS011;27177;22.262;114.192;2022-09-24T03:25:48;13.50;;;10.15;;
41434;SDS011;27177;22.262;114.192;2022-09-24T03:28:15;13.30;;;9.93;;
41434;SDS011;27177;22.262;114.192;2022-09-24T03:30:43;13.85;;;9.70;;
41434;SDS011;27177;22.262;114.192;2022-09-24T03:33:26;14.52;;;9.73;;
41434;SDS011;27177;22.262;114.192;2022-09-24T03:36:06;14.82;;;10.70;;
41434;SDS011;27177;22.262;114.192;2022-09-24T03:38:36;14.80;;;9.73;;
41434;SDS011;27177;22.262;114.192;2022-09-24T03:41:05;15.10;;;10.27;;
41434;SDS011;27177;22.262;114.192;2022-09-24T03:43:33;14.32;;;9.82;;
41434;SDS011;27177;22.262;114.192;2022-09-24T03:46:01;15.10;;;10.32;;
41434;SDS011;27177;22.262;114.192;2022-09-24T03:48:31;17.70;;;10.82;;
41434;SDS011;27177;22.262;114.192;2022-09-24T03:51:03;14.63;;;10.90;;
41434;SDS011;27177;22.262;114.192;2022-09-24T03:53:32;12.20;;;10.13;;
41434;SDS011;27177;22.262;114.192;2022-09-24T03:55:59;14.52;;;10.50;;
41434;SDS011;27177;22.262;114.192;2022-09-24T03:58:28;13.07;;;9.70;;
41434;SDS011;27177;22.262;114.192;2022-09-24T04:00:56;14.55;;;10.00;;
41434;SDS011;27177;22.262;114.192;2022-09-24T04:03:23;12.10;;;9.50;;
41434;SDS011;27177;22.262;114.192;2022-09-24T04:05:50;17.20;;;10.80;;
41434;SDS011;27177;22.262;114.192;2022-09-24T04:08:18;15.10;;;10.88;;
41434;SDS011;27177;22.262;114.192;2022-09-24T04:10:48;14.55;;;10.65;;
41434;SDS011;27177;22.262;114.192;2022-09-24T04:13:21;15.15;;;10.40;;
41434;SDS011;27177;22.262;114.192;2022-09-24T04:15:49;18.90;;;10.32;;
41434;SDS011;27177;22.262;114.192;2022-09-24T04:18:18;13.32;;;10.15;;
41434;SDS011;27177;22.262;114.192;2022-09-24T04:20:45;13.80;;;10.15;;
41434;SDS011;27177;22.262;114.192;2022-09-24T04:23:12;16.90;;;10.80;;
41434;SDS011;27177;22.262;114.192;2022-09-24T04:25:40;13.32;;;9.68;;
41434;SDS011;27177;22.262;114.192;2022-09-24T04:28:07;14.65;;;10.93;;
41434;SDS011;27177;22.262;114.192;2022-09-24T04:30:35;16.83;;;11.05;;
41434;SDS011;27177;22.262;114.192;2022-09-24T04:33:02;12.98;;;10.32;;
41434;SDS011;27177;22.262;114.192;2022-09-24T04:35:30;16.13;;;11.23;;
41434;SDS011;27177;22.262;114.192;2022-09-24T04:38:00;12.35;;;10.15;;
41434;SDS011;27177;22.262;114.192;2022-09-24T04:40:29;14.50;;;10.60;;
41434;SDS011;27177;22.262;114.192;2022-09-24T04:42:56;13.02;;;11.05;;
41434;SDS011;27177;22.262;114.192;2022-09-24T04:45:23;12.68;;;10.18;;
41434;SDS011;27177;22.262;114.192;2022-09-24T04:47:51;15.73;;;10.75;;
41434;SDS011;27177;22.262;114.192;2022-09-24T04:50:22;15.93;;;11.63;;
41434;SDS011;27177;22.262;114.192;2022-09-24T04:52:54;14.82;;;10.68;;
41434;SDS011;27177;22.262;114.192;2022-09-24T04:55:22;11.25;;;10.00;;
41434;SDS011;27177;22.262;114.192;2022-09-24T04:57:49;14.07;;;11.35;;
41434;SDS011;27177;22.262;114.192;2022-09-24T05:00:18;11.80;;;10.18;;
41434;SDS011;27177;22.262;114.192;2022-09-24T05:02:45;18.85;;;10.25;;
41434;SDS011;27177;22.262;114.192;2022-09-24T05:05:12;15.32;;;10.25;;
41434;SDS011;27177;22.262;114.192;2022-09-24T05:07:40;16.75;;;11.10;;
41434;SDS011;27177;22.262;114.192;2022-09-24T05:10:08;19.35;;;10.93;;
41434;SDS011;27177;22.262;114.192;2022-09-24T05:12:35;13.55;;;10.13;;
41434;SDS011;27177;22.262;114.192;2022-09-24T05:15:02;14.10;;;11.35;;
41434;SDS011;27177;22.262;114.192;2022-09-24T05:17:29;12.88;;;10.02;;
41434;SDS011;27177;22.262;114.192;2022-09-24T05:19:56;13.90;;;10.45;;
41434;SDS011;27177;22.262;114.192;2022-09-24T05:22:24;11.63;;;10.38;;
41434;SDS011;27177;22.262;114.192;2022-09-24T05:24:54;15.68;;;11.43;;
41434;SDS011;27177;22.262;114.192;2022-09-24T05:27:21;16.13;;;10.85;;
41434;SDS011;27177;22.262;114.192;2022-09-24T05:29:48;19.55;;;11.25;;
41434;SDS011;27177;22.262;114.192;2022-09-24T05:32:16;14.60;;;10.57;;
41434;SDS011;27177;22.262;114.192;2022-09-24T05:34:45;14.48;;;10.98;;
41434;SDS011;27177;22.262;114.192;2022-09-24T05:37:13;16.67;;;11.90;;
41434;SDS011;27177;22.262;114.192;2022-09-24T05:39:40;15.48;;;11.18;;
41434;SDS011;27177;22.262;114.192;2022-09-24T05:42:11;16.10;;;10.98;;
41434;SDS011;27177;22.262;114.192;2022-09-24T05:44:39;15.48;;;10.57;;
41434;SDS011;27177;22.262;114.192;2022-09-24T05:47:08;17.75;;;11.38;;
41434;SDS011;27177;22.262;114.192;2022-09-24T05:49:35;13.50;;;11.05;;
41434;SDS011;27177;22.262;114.192;2022-09-24T05:52:02;21.08;;;11.50;;
41434;SDS011;27177;22.262;114.192;2022-09-24T05:54:30;15.55;;;10.52;;
41434;SDS011;27177;22.262;114.192;2022-09-24T05:56:57;14.40;;;10.45;;
41434;SDS011;27177;22.262;114.192;2022-09-24T05:59:24;14.32;;;10.68;;
41434;SDS011;27177;22.262;114.192;2022-09-24T06:01:51;16.85;;;11.27;;
41434;SDS011;27177;22.262;114.192;2022-09-24T06:04:18;15.95;;;10.70;;
41434;SDS011;27177;22.262;114.192;2022-09-24T06:06:45;16.38;;;10.60;;
41434;SDS011;27177;22.262;114.192;2022-09-24T06:09:11;18.65;;;10.57;;
41434;SDS011;27177;22.262;114.192;2022-09-24T06:11:38;16.92;;;12.52;;
41434;SDS011;27177;22.262;114.192;2022-09-24T06:14:06;15.30;;;10.93;;
41434;SDS011;27177;22.262;114.192;2022-09-24T06:16:34;11.85;;;10.52;;
41434;SDS011;27177;22.262;114.192;2022-09-24T06:19:01;16.05;;;11.50;;
41434;SDS011;27177;22.262;114.192;2022-09-24T06:21:27;14.68;;;10.18;;
41434;SDS011;27177;22.262;114.192;2022-09-24T06:23:54;21.15;;;11.63;;
41434;SDS011;27177;22.262;114.192;2022-09-24T06:26:21;15.10;;;10.50;;
41434;SDS011;27177;22.262;114.192;2022-09-24T06:28:50;12.07;;;10.63;;
41434;SDS011;27177;22.262;114.192;2022-09-24T06:31:17;20.10;;;11.27;;
41434;SDS011;27177;22.262;114.192;2022-09-24T06:33:43;14.75;;;10.38;;
41434;SDS011;27177;22.262;114.192;2022-09-24T06:36:10;14.40;;;10.68;;
41434;SDS011;27177;22.262;114.192;2022-09-24T06:38:37;14.93;;;10.82;;
41434;SDS011;27177;22.262;114.192;2022-09-24T06:41:05;12.40;;;10.45;;
41434;SDS011;27177;22.262;114.192;2022-09-24T06:43:32;12.05;;;10.50;;
41434;SDS011;27177;22.262;114.192;2022-09-24T06:46:00;15.32;;;10.98;;
41434;SDS011;27177;22.262;114.192;2022-09-24T06:48:28;13.73;;;10.63;;
41434;SDS011;27177;22.262;114.192;2022-09-24T06:50:55;13.90;;;10.77;;
41434;SDS011;27177;22.262;114.192;2022-09-24T06:53:22;16.15;;;11.82;;
41434;SDS011;27177;22.262;114.192;2022-09-24T06:55:49;14.48;;;11.77;;
41434;SDS011;27177;22.262;114.192;2022-09-24T07:00:53;15.27;;;11.85;;
41434;SDS011;27177;22.262;114.192;2022-09-24T07:05:58;13.55;;;11.32;;
41434;SDS011;27177;22.262;114.192;2022-09-24T07:08:26;18.90;;;11.65;;
41434;SDS011;27177;22.262;114.192;2022-09-24T07:10:53;17.67;;;11.70;;
41434;SDS011;27177;22.262;114.192;2022-09-24T07:13:20;17.33;;;11.75;;
41434;SDS011;27177;22.262;114.192;2022-09-24T07:18:24;17.38;;;12.32;;
41434;SDS011;27177;22.262;114.192;2022-09-24T07:20:51;14.70;;;12.23;;
41434;SDS011;27177;22.262;114.192;2022-09-24T07:23:19;16.88;;;12.75;;
41434;SDS011;27177;22.262;114.192;2022-09-24T07:25:46;13.93;;;11.90;;
41434;SDS011;27177;22.262;114.192;2022-09-24T07:28:14;13.98;;;12.02;;
41434;SDS011;27177;22.262;114.192;2022-09-24T07:30:41;15.32;;;11.40;;
41434;SDS011;27177;22.262;114.192;2022-09-24T07:33:08;13.98;;;11.43;;
41434;SDS011;27177;22.262;114.192;2022-09-24T07:35:38;17.40;;;11.98;;
41434;SDS011;27177;22.262;114.192;2022-09-24T07:38:06;16.85;;;12.18;;
41434;SDS011;27177;22.262;114.192;2022-09-24T07:40:38;21.67;;;12.15;;
41434;SDS011;27177;22.262;114.192;2022-09-24T07:45:40;17.15;;;12.15;;
41434;SDS011;27177;22.262;114.192;2022-09-24T07:48:08;17.02;;;12.48;;
41434;SDS011;27177;22.262;114.192;2022-09-24T07:50:38;15.60;;;11.40;;
41434;SDS011;27177;22.262;114.192;2022-09-24T07:53:09;16.48;;;11.13;;
41434;SDS011;27177;22.262;114.192;2022-09-24T07:55:37;13.82;;;10.25;;
41434;SDS011;27177;22.262;114.192;2022-09-24T07:58:05;13.48;;;9.18;;
41434;SDS011;27177;22.262;114.192;2022-09-24T08:00:33;15.63;;;9.10;;
41434;SDS011;27177;22.262;114.192;2022-09-24T08:03:03;13.82;;;9.02;;
41434;SDS011;27177;22.262;114.192;2022-09-24T08:05:31;15.30;;;8.95;;
41434;SDS011;27177;22.262;114.192;2022-09-24T08:07:58;18.63;;;8.70;;
41434;SDS011;27177;22.262;114.192;2022-09-24T08:10:26;14.60;;;8.02;;
41434;SDS011;27177;22.262;114.192;2022-09-24T08:12:53;17.00;;;8.38;;
41434;SDS011;27177;22.262;114.192;2022-09-24T08:15:22;16.05;;;9.13;;
41434;SDS011;27177;22.262;114.192;2022-09-24T08:17:50;17.48;;;8.88;;
41434;SDS011;27177;22.262;114.192;2022-09-24T08:20:17;14.00;;;8.85;;
41434;SDS011;27177;22.262;114.192;2022-09-24T08:22:46;12.68;;;8.45;;
41434;SDS011;27177;22.262;114.192;2022-09-24T08:25:12;18.75;;;8.77;;
41434;SDS011;27177;22.262;114.192;2022-09-24T08:27:39;11.73;;;8.90;;
41434;SDS011;27177;22.262;114.192;2022-09-24T08:30:06;12.85;;;8.90;;
41434;SDS011;27177;22.262;114.192;2022-09-24T08:32:35;16.77;;;8.95;;
41434;SDS011;27177;22.262;114.192;2022-09-24T08:35:03;17.15;;;9.05;;
41434;SDS011;27177;22.262;114.192;2022-09-24T08:37:32;16.98;;;8.95;;
41434;SDS011;27177;22.262;114.192;2022-09-24T08:39:59;16.27;;;8.65;;
41434;SDS011;27177;22.262;114.192;2022-09-24T08:45:19;10.65;;;8.07;;
41434;SDS011;27177;22.262;114.192;2022-09-24T08:48:38;12.95;;;7.80;;
41434;SDS011;27177;22.262;114.192;2022-09-24T08:50:59;17.35;;;8.55;;
41434;SDS011;27177;22.262;114.192;2022-09-24T08:56:09;16.20;;;7.65;;
41434;SDS011;27177;22.262;114.192;2022-09-24T09:11:30;12.00;;;7.20;;
41434;SDS011;27177;22.262;114.192;2022-09-24T09:13:59;12.30;;;7.20;;
41434;SDS011;27177;22.262;114.192;2022-09-24T09:19:17;12.65;;;6.55;;
41434;SDS011;27177;22.262;114.192;2022-09-24T09:22:09;14.30;;;7.18;;
41434;SDS011;27177;22.262;114.192;2022-09-24T09:24:46;12.68;;;7.43;;
41434;SDS011;27177;22.262;114.192;2022-09-24T09:27:17;14.85;;;7.40;;
41434;SDS011;27177;22.262;114.192;2022-09-24T09:29:55;16.58;;;8.32;;
41434;SDS011;27177;22.262;114.192;2022-09-24T09:37:51;16.63;;;7.47;;
41434;SDS011;27177;22.262;114.192;2022-09-24T09:40:47;14.90;;;7.85;;
41434;SDS011;27177;22.262;114.192;2022-09-24T09:43:22;11.70;;;6.73;;
41434;SDS011;27177;22.262;114.192;2022-09-24T09:48:44;13.95;;;7.13;;
41434;SDS011;27177;22.262;114.192;2022-09-24T09:51:19;18.60;;;7.50;;
41434;SDS011;27177;22.262;114.192;2022-09-24T09:54:01;14.75;;;7.07;;
41434;SDS011;27177;22.262;114.192;2022-09-24T09:56:29;19.42;;;7.85;;
41434;SDS011;27177;22.262;114.192;2022-09-24T09:59:03;9.40;;;6.00;;
41434;SDS011;27177;22.262;114.192;2022-09-24T10:01:43;13.10;;;6.95;;
41434;SDS011;27177;22.262;114.192;2022-09-24T10:04:45;12.02;;;7.30;;
41434;SDS011;27177;22.262;114.192;2022-09-24T10:09:35;13.93;;;7.15;;
41434;SDS011;27177;22.262;114.192;2022-09-24T10:15:00;9.05;;;7.00;;
41434;SDS011;27177;22.262;114.192;2022-09-24T10:17:38;10.52;;;7.57;;
41434;SDS011;27177;22.262;114.192;2022-09-24T10:20:24;14.95;;;7.50;;
41434;SDS011;27177;22.262;114.192;2022-09-24T10:22:57;14.25;;;7.85;;
41434;SDS011;27177;22.262;114.192;2022-09-24T10:25:31;14.35;;;7.57;;
41434;SDS011;27177;22.262;114.192;2022-09-24T10:28:05;14.68;;;7.07;;
41434;SDS011;27177;22.262;114.192;2022-09-24T10:30:59;13.25;;;8.13;;
41434;SDS011;27177;22.262;114.192;2022-09-24T10:33:38;12.73;;;7.93;;
41434;SDS011;27177;22.262;114.192;2022-09-24T10:36:29;16.25;;;7.60;;
41434;SDS011;27177;22.262;114.192;2022-09-24T10:41:47;16.42;;;8.13;;
41434;SDS011;27177;22.262;114.192;2022-09-24T10:44:16;16.80;;;7.95;;
41434;SDS011;27177;22.262;114.192;2022-09-24T10:46:48;15.77;;;7.35;;
41434;SDS011;27177;22.262;114.192;2022-09-24T10:49:30;14.93;;;7.43;;
41434;SDS011;27177;22.262;114.192;2022-09-24T10:52:35;11.50;;;6.90;;
41434;SDS011;27177;22.262;114.192;2022-09-24T10:58:20;14.45;;;7.30;;
41434;SDS011;27177;22.262;114.192;2022-09-24T11:19:49;16.13;;;7.93;;
41434;SDS011;27177;22.262;114.192;2022-09-24T11:22:51;14.80;;;8.43;;
41434;SDS011;27177;22.262;114.192;2022-09-24T11:37:43;9.98;;;7.07;;
41434;SDS011;27177;22.262;114.192;2022-09-24T12:11:57;15.60;;;6.95;;
41434;SDS011;27177;22.262;114.192;2022-09-24T12:20:26;14.50;;;8.20;;
41434;SDS011;27177;22.262;114.192;2022-09-24T12:25:35;15.90;;;7.95;;
41434;SDS011;27177;22.262;114.192;2022-09-24T12:33:23;16.30;;;8.70;;
41434;SDS011;27177;22.262;114.192;2022-09-24T12:35:58;13.32;;;8.18;;
41434;SDS011;27177;22.262;114.192;2022-09-24T12:49:16;16.55;;;8.75;;
41434;SDS011;27177;22.262;114.192;2022-09-24T12:52:05;17.13;;;8.50;;
41434;SDS011;27177;22.262;114.192;2022-09-24T12:54:43;20.55;;;9.77;;
41434;SDS011;27177;22.262;114.192;2022-09-24T12:57:20;14.00;;;9.32;;
41434;SDS011;27177;22.262;114.192;2022-09-24T13:02:27;11.40;;;8.10;;
41434;SDS011;27177;22.262;114.192;2022-09-24T13:20:25;19.67;;;8.80;;
41434;SDS011;27177;22.262;114.192;2022-09-24T13:22:59;18.90;;;8.85;;
41434;SDS011;27177;22.262;114.192;2022-09-24T13:30:49;19.27;;;8.93;;
41434;SDS011;27177;22.262;114.192;2022-09-24T13:33:44;17.10;;;9.23;;
41434;SDS011;27177;22.262;114.192;2022-09-24T13:39:20;12.82;;;7.95;;
41434;SDS011;27177;22.262;114.192;2022-09-24T13:49:36;13.68;;;7.65;;
41434;SDS011;27177;22.262;114.192;2022-09-24T13:54:48;17.13;;;9.93;;
41434;SDS011;27177;22.262;114.192;2022-09-24T14:02:52;13.68;;;8.07;;
41434;SDS011;27177;22.262;114.192;2022-09-24T14:05:23;16.13;;;8.50;;
41434;SDS011;27177;22.262;114.192;2022-09-24T14:07:56;15.95;;;8.20;;
41434;SDS011;27177;22.262;114.192;2022-09-24T14:10:24;15.77;;;9.13;;
41434;SDS011;27177;22.262;114.192;2022-09-24T14:18:24;16.27;;;9.73;;
41434;SDS011;27177;22.262;114.192;2022-09-24T14:21:14;16.75;;;8.52;;
41434;SDS011;27177;22.262;114.192;2022-09-24T14:23:41;20.77;;;9.45;;
41434;SDS011;27177;22.262;114.192;2022-09-24T14:32:00;14.45;;;8.77;;
41434;SDS011;27177;22.262;114.192;2022-09-24T14:37:11;12.07;;;7.80;;
41434;SDS011;27177;22.262;114.192;2022-09-24T14:39:45;16.20;;;9.10;;
41434;SDS011;27177;22.262;114.192;2022-09-24T14:42:21;13.80;;;8.70;;
41434;SDS011;27177;22.262;114.192;2022-09-24T14:44:55;13.45;;;9.45;;
41434;SDS011;27177;22.262;114.192;2022-09-24T14:47:25;16.35;;;9.63;;
41434;SDS011;27177;22.262;114.192;2022-09-24T14:49:54;12.35;;;8.23;;
41434;SDS011;27177;22.262;114.192;2022-09-24T14:55:14;17.45;;;8.50;;
41434;SDS011;27177;22.262;114.192;2022-09-24T14:57:47;17.30;;;9.23;;
41434;SDS011;27177;22.262;114.192;2022-09-24T15:02:59;16.13;;;9.68;;
41434;SDS011;27177;22.262;114.192;2022-09-24T15:05:37;16.40;;;10.07;;
41434;SDS011;27177;22.262;114.192;2022-09-24T15:08:46;18.40;;;8.95;;
41434;SDS011;27177;22.262;114.192;2022-09-24T15:10:55;18.85;;;9.60;;
41434;SDS011;27177;22.262;114.192;2022-09-24T15:13:30;14.32;;;8.98;;
41434;SDS011;27177;22.262;114.192;2022-09-24T15:18:41;17.55;;;8.88;;
41434;SDS011;27177;22.262;114.192;2022-09-24T15:21:08;16.23;;;9.40;;
41434;SDS011;27177;22.262;114.192;2022-09-24T15:23:37;12.48;;;8.25;;
41434;SDS011;27177;22.262;114.192;2022-09-24T15:26:04;16.38;;;9.07;;
41434;SDS011;27177;22.262;114.192;2022-09-24T15:28:34;16.20;;;8.82;;
41434;SDS011;27177;22.262;114.192;2022-09-24T15:31:01;12.88;;;8.80;;
41434;SDS011;27177;22.262;114.192;2022-09-24T15:36:03;17.10;;;9.10;;
41434;SDS011;27177;22.262;114.192;2022-09-24T15:38:30;20.50;;;9.57;;
41434;SDS011;27177;22.262;114.192;2022-09-24T15:40:57;16.20;;;9.48;;
41434;SDS011;27177;22.262;114.192;2022-09-24T15:43:24;14.63;;;9.38;;
41434;SDS011;27177;22.262;114.192;2022-09-24T15:45:51;16.27;;;9.25;;
41434;SDS011;27177;22.262;114.192;2022-09-24T15:48:18;15.07;;;8.50;;
41434;SDS011;27177;22.262;114.192;2022-09-24T15:53:21;16.95;;;9.98;;
41434;SDS011;27177;22.262;114.192;2022-09-24T15:58:26;19.27;;;9.68;;
41434;SDS011;27177;22.262;114.192;2022-09-24T16:00:53;19.15;;;9.55;;
41434;SDS011;27177;22.262;114.192;2022-09-24T16:03:24;24.88;;;10.13;;
41434;SDS011;27177;22.262;114.192;2022-09-24T16:34:16;19.17;;;10.07;;
41434;SDS011;27177;22.262;114.192;2022-09-24T16:36:43;17.75;;;10.75;;
41434;SDS011;27177;22.262;114.192;2022-09-24T16:39:10;18.90;;;11.23;;
41434;SDS011;27177;22.262;114.192;2022-09-24T17:23:05;19.15;;;11.45;;
41434;SDS011;27177;22.262;114.192;2022-09-24T17:41:02;21.48;;;12.98;;
41434;SDS011;27177;22.262;114.192;2022-09-24T17:43:31;21.95;;;12.32;;
41434;SDS011;27177;22.262;114.192;2022-09-24T18:04:00;25.57;;;11.83;;
41434;SDS011;27177;22.262;114.192;2022-09-24T18:09:03;18.33;;;12.27;;
41434;SDS011;27177;22.262;114.192;2022-09-24T18:17:31;20.17;;;12.07;;
41434;SDS011;27177;22.262;114.192;2022-09-24T18:20:00;28.50;;;12.55;;
41434;SDS011;27177;22.262;114.192;2022-09-24T18:22:27;18.95;;;11.75;;
41434;SDS011;27177;22.262;114.192;2022-09-24T18:27:29;22.55;;;11.95;;
41434;SDS011;27177;22.262;114.192;2022-09-24T18:29:56;17.65;;;10.60;;
41434;SDS011;27177;22.262;114.192;2022-09-24T18:32:26;21.10;;;11.75;;
41434;SDS011;27177;22.262;114.192;2022-09-24T18:34:54;23.65;;;11.32;;
41434;SDS011;27177;22.262;114.192;2022-09-24T18:37:20;27.00;;;12.52;;
41434;SDS011;27177;22.262;114.192;2022-09-24T18:42:22;28.52;;;11.50;;
41434;SDS011;27177;22.262;114.192;2022-09-24T18:44:51;20.60;;;11.48;;
41434;SDS011;27177;22.262;114.192;2022-09-24T18:47:18;17.83;;;10.38;;
41434;SDS011;27177;22.262;114.192;2022-09-24T18:52:20;21.17;;;10.05;;
41434;SDS011;27177;22.262;114.192;2022-09-24T18:54:47;19.00;;;10.65;;
41434;SDS011;27177;22.262;114.192;2022-09-24T18:57:14;18.25;;;10.00;;
41434;SDS011;27177;22.262;114.192;2022-09-24T19:02:17;21.10;;;10.63;;
41434;SDS011;27177;22.262;114.192;2022-09-24T19:09:53;23.23;;;11.52;;
41434;SDS011;27177;22.262;114.192;2022-09-24T19:12:20;27.95;;;10.50;;
41434;SDS011;27177;22.262;114.192;2022-09-24T19:14:46;23.63;;;9.98;;
41434;SDS011;27177;22.262;114.192;2022-09-24T19:17:14;19.40;;;10.80;;
41434;SDS011;27177;22.262;114.192;2022-09-24T19:19:40;17.30;;;9.55;;
41434;SDS011;27177;22.262;114.192;2022-09-24T19:22:09;15.35;;;9.27;;
41434;SDS011;27177;22.262;114.192;2022-09-24T19:24:38;20.27;;;10.23;;
41434;SDS011;27177;22.262;114.192;2022-09-24T19:27:05;23.40;;;10.35;;
41434;SDS011;27177;22.262;114.192;2022-09-24T19:29:32;20.58;;;9.77;;
41434;SDS011;27177;22.262;114.192;2022-09-24T19:31:59;22.10;;;10.48;;
41434;SDS011;27177;22.262;114.192;2022-09-24T19:34:27;20.23;;;9.88;;
41434;SDS011;27177;22.262;114.192;2022-09-24T19:36:54;19.05;;;9.43;;
41434;SDS011;27177;22.262;114.192;2022-09-24T19:39:21;19.02;;;10.13;;
41434;SDS011;27177;22.262;114.192;2022-09-24T19:46:57;25.35;;;10.55;;
41434;SDS011;27177;22.262;114.192;2022-09-24T19:51:51;18.55;;;9.95;;
41434;SDS011;27177;22.262;114.192;2022-09-24T19:54:18;15.40;;;8.88;;
41434;SDS011;27177;22.262;114.192;2022-09-24T19:56:45;19.83;;;9.52;;
41434;SDS011;27177;22.262;114.192;2022-09-24T20:01:42;25.05;;;10.82;;
41434;SDS011;27177;22.262;114.192;2022-09-24T20:04:09;19.52;;;10.07;;
41434;SDS011;27177;22.262;114.192;2022-09-24T20:11:48;21.27;;;10.77;;
41434;SDS011;27177;22.262;114.192;2022-09-24T20:14:15;23.27;;;10.10;;
41434;SDS011;27177;22.262;114.192;2022-09-24T20:16:44;27.65;;;10.68;;
41434;SDS011;27177;22.262;114.192;2022-09-24T20:19:12;20.35;;;10.32;;
41434;SDS011;27177;22.262;114.192;2022-09-24T20:21:39;19.40;;;10.32;;
41434;SDS011;27177;22.262;114.192;2022-09-24T20:24:08;17.45;;;9.55;;
41434;SDS011;27177;22.262;114.192;2022-09-24T20:29:12;21.88;;;11.65;;
41434;SDS011;27177;22.262;114.192;2022-09-24T21:12:15;28.10;;;11.20;;
41434;SDS011;27177;22.262;114.192;2022-09-24T21:19:53;13.73;;;9.05;;
41434;SDS011;27177;22.262;114.192;2022-09-24T21:24:56;18.50;;;9.95;;
41434;SDS011;27177;22.262;114.192;2022-09-24T21:40:20;18.08;;;8.85;;